TAF and METAR

Decoding for American and Canadian METARs and TAFs is not fully implemented.

Could not understand the following METAR

KLBE 311153Z 01007KT 10SM BKN050 11/09 A3021

TAF for Arnold Palmer Regional Airport

KLBE 311127Z 3112/0112 00000KT P6SM SCT050 FM311500 33012KT P6SM SCT035 FM010000 00000KT P6SM SKC
Report created 31. mai 13:27

between 31. mai 14:00 - 1. mai 14:00

wind 0 knots from N (000°)
Arnold Palmer Regional Airport in United States of America at 361m

Latest 5 airports